Portada
METAR-TAF:

METAR-TAF

Aeroports :

Tinian, Illes Mariannes, Estats Units d'Amèrica

latitud: 14-59N, longitud: 145-37E, altitud: 82 m

Observació

L'informe es va fer fa 17 minuts, a les 06:50 UTC
Vent 8 kt del Est
Temperatura 31°C
Humitat 63%
Pressió 1009 hPa
Visibilitat: 11.3 km
Escasses núvols a una alçada de 1600 ft

METAR: PGWT 180650Z 09008KT 7SM FEW016 31/23 A2981 RMK WIND DATA ESTIMATED

Hora: 17:07 (07:07 UTC)

Pronòstic

L'informe es va fer fa 1 hora i 44 minuts, a les 05:23 UTC
Pronòstic vàlid del 18 a les 06 UTC al 19 a les 06 UTC
Vent 11 kt del Est
Visibilitat: 10 km
Escasses núvols a una alçada de 1600 ft
Núvols disperses a una alçada de 14000 ft
xàfecs en les proximitats

TAF: PGWT 180523Z 1806/1906 09011KT P6SM VCSH FEW016 SCT140

Observacions i pronòstics meteorològics de més de 4000 aeroports (METAR i TAF).

Les estacions disponibles són els punts grocs i vermells al mapa.

Posi el ratolí al punt desitjat per veure el nom de l'estació.

Feu clic per veure les observacions i els pronòstics meteorològics.

Per canviar el mapa: feu clic els botons verds amb una creu de color negre per apropar; al botó verd amb un guió per allunyar la imatge; o en les fletxes verdes per a mapes adjacents.


METAR-TAF: